Terminal Aerodrome Forecast
Issued by NWS

Home | Current Version | Previous Version | Text Only | Print | Product List | Glossary On
Versions: 1 2 3 4 5 6 7 8 9 10 11 12 13 14 15 16 17
111
FTUS43 KBIS 032335
TAFDIK
TAF
KDIK 032335Z 0400/0424 21011KT P6SM OVC080
     FM040300 26011KT P6SM SCT020 BKN050
     FM040600 28013KT P6SM BKN035
     FM040900 27013KT P6SM SCT060
     FM041300 26009KT P6SM SCT140
     FM042100 22009KT P6SM BKN250=

USA.gov is the U.S. government's official web portal to all federal, state and local government web resources and services.